createdAt,value
2022-08-03T00:01:48.582Z,43.44
2022-08-03T00:04:15.041Z,43.17
2022-08-03T00:06:41.457Z,43.32
2022-08-03T00:09:08.218Z,43.36
2022-08-03T00:11:35.135Z,43.20
2022-08-03T00:14:01.682Z,43.14
2022-08-03T00:16:28.242Z,43.38
2022-08-03T00:18:54.637Z,43.53
2022-08-03T00:21:21.147Z,43.30
2022-08-03T00:23:52.178Z,43.62
2022-08-03T00:26:19.344Z,43.51
2022-08-03T00:28:45.765Z,43.42
2022-08-03T00:31:13.565Z,43.33
2022-08-03T00:33:59.117Z,43.75
2022-08-03T00:36:26.871Z,43.62
2022-08-03T00:38:53.290Z,43.39
2022-08-03T00:41:21.565Z,43.41
2022-08-03T00:43:48.201Z,43.43
2022-08-03T00:46:19.240Z,43.28
2022-08-03T00:48:49.042Z,43.62
2022-08-03T00:51:15.461Z,43.42
2022-08-03T00:53:41.871Z,43.46
2022-08-03T00:56:08.301Z,43.26
2022-08-03T00:58:34.716Z,43.33
2022-08-03T01:01:01.255Z,43.40
2022-08-03T01:03:27.842Z,43.33
2022-08-03T01:06:16.736Z,43.31
2022-08-03T01:08:48.924Z,43.51
2022-08-03T01:11:19.195Z,43.45
2022-08-03T01:14:03.965Z,43.69
2022-08-03T01:16:52.617Z,43.57
2022-08-03T01:19:37.888Z,43.65
2022-08-03T01:22:10.347Z,43.65
2022-08-03T01:24:52.056Z,43.36
2022-08-03T01:27:21.906Z,43.69
2022-08-03T01:29:48.267Z,43.55
2022-08-03T01:32:59.695Z,43.62
2022-08-03T01:35:42.394Z,43.57
2022-08-03T01:38:13.782Z,43.56
2022-08-03T01:40:41.726Z,43.47
2022-08-03T01:43:09.706Z,43.41
2022-08-03T01:45:36.822Z,43.67
2022-08-03T01:48:03.607Z,43.38
2022-08-03T01:50:30.993Z,43.50
2022-08-03T01:52:58.478Z,43.57
2022-08-03T01:55:28.244Z,43.55
2022-08-03T01:58:05.964Z,43.56
2022-08-03T02:00:35.696Z,43.55
2022-08-03T02:03:04.630Z,43.75
2022-08-03T02:05:31.626Z,43.64
2022-08-03T02:07:58.588Z,43.74
2022-08-03T02:10:35.333Z,43.63
2022-08-03T02:13:03.049Z,43.82
2022-08-03T02:15:30.472Z,43.59
2022-08-03T02:17:57.611Z,43.91
2022-08-03T02:20:24.181Z,43.69
2022-08-03T02:22:50.572Z,43.56
2022-08-03T02:25:17.196Z,43.93
2022-08-03T02:27:48.964Z,43.85
2022-08-03T02:30:15.555Z,43.76
2022-08-03T02:32:43.890Z,43.74
2022-08-03T02:35:11.953Z,43.65
2022-08-03T02:37:42.875Z,43.77
2022-08-03T02:40:10.240Z,43.52
2022-08-03T02:42:38.589Z,43.58
2022-08-03T02:45:06.754Z,43.51
2022-08-03T02:47:53.797Z,43.64
2022-08-03T02:50:21.927Z,43.61
2022-08-03T02:52:49.670Z,43.67
2022-08-03T02:55:16.597Z,43.51
2022-08-03T02:57:44.558Z,43.84
2022-08-03T03:00:11.265Z,43.70
2022-08-03T03:02:38.491Z,43.65
2022-08-03T03:05:52.602Z,43.73
2022-08-03T03:07:57.261Z,43.78
2022-08-03T03:10:24.717Z,43.78
2022-08-03T03:12:52.570Z,43.84
2022-08-03T03:15:19.043Z,44.01
2022-08-03T03:17:46.069Z,44.12
2022-08-03T03:20:12.762Z,44.05
2022-08-03T03:22:40.150Z,44.05
2022-08-03T03:25:11.866Z,44.07
2022-08-03T03:27:39.292Z,43.99
2022-08-03T03:30:06.026Z,43.89
2022-08-03T03:32:32.472Z,44.04
2022-08-03T03:34:59.612Z,43.65
2022-08-03T03:37:28.795Z,43.77
2022-08-03T03:39:55.309Z,44.04
2022-08-03T03:42:21.700Z,43.83
2022-08-03T03:44:48.290Z,44.03
2022-08-03T03:47:14.799Z,44.04
2022-08-03T03:49:43.469Z,44.07
2022-08-03T03:52:10.453Z,43.89
2022-08-03T03:54:41.357Z,43.97
2022-08-03T03:57:07.873Z,44.07
2022-08-03T03:59:39.718Z,43.92
2022-08-03T04:02:07.156Z,43.82
2022-08-03T04:04:52.813Z,43.83
2022-08-03T04:07:38.110Z,43.97
2022-08-03T04:10:27.635Z,44.16
2022-08-03T04:12:56.055Z,43.89
2022-08-03T04:15:24.103Z,43.83
2022-08-03T04:17:52.313Z,43.86
2022-08-03T04:20:21.381Z,43.77
2022-08-03T04:22:49.634Z,43.99
2022-08-03T04:25:19.342Z,43.75
2022-08-03T04:28:08.063Z,43.96
2022-08-03T04:30:36.169Z,43.90
2022-08-03T04:33:02.719Z,43.77
2022-08-03T04:36:00.991Z,43.76
2022-08-03T04:38:20.045Z,43.76
2022-08-03T04:40:47.895Z,43.90
2022-08-03T04:43:16.692Z,43.89
2022-08-03T04:45:43.843Z,44.06
2022-08-03T04:48:10.313Z,43.92
2022-08-03T04:50:37.006Z,44.00
2022-08-03T04:53:03.649Z,43.84
2022-08-03T04:55:30.952Z,43.98
2022-08-03T04:57:57.804Z,43.79
2022-08-03T05:00:24.908Z,43.92
2022-08-03T05:02:51.495Z,43.82
2022-08-03T05:05:17.985Z,43.92
2022-08-03T05:07:45.706Z,43.84
2022-08-03T05:10:16.002Z,43.64
2022-08-03T05:12:44.014Z,43.94
2022-08-03T05:15:10.570Z,43.78
2022-08-03T05:17:37.032Z,44.13
2022-08-03T05:20:04.572Z,43.70
2022-08-03T05:22:30.965Z,43.78
2022-08-03T05:24:57.688Z,43.85
2022-08-03T05:27:24.108Z,44.06
2022-08-03T05:29:51.160Z,43.81
2022-08-03T05:32:18.158Z,43.81
2022-08-03T05:34:44.809Z,43.93
2022-08-03T05:37:11.335Z,43.98
2022-08-03T05:39:38.225Z,44.01
2022-08-03T05:42:04.785Z,43.99
2022-08-03T05:44:31.793Z,44.16
2022-08-03T05:46:58.565Z,44.09
2022-08-03T05:49:25.031Z,44.27
2022-08-03T05:52:00.354Z,44.08
2022-08-03T05:54:56.306Z,44.07
2022-08-03T05:57:24.090Z,44.08
2022-08-03T05:59:53.896Z,43.99
2022-08-03T06:02:24.735Z,43.83
2022-08-03T06:04:51.136Z,44.17
2022-08-03T06:07:17.774Z,44.24
2022-08-03T06:10:35.093Z,44.11
2022-08-03T06:12:31.144Z,43.95
2022-08-03T06:14:57.631Z,44.10
2022-08-03T06:17:24.104Z,44.11
2022-08-03T06:19:53.708Z,44.19
2022-08-03T06:22:20.436Z,44.24
2022-08-03T06:24:53.539Z,44.09
2022-08-03T06:27:21.158Z,44.01
2022-08-03T06:30:03.669Z,44.17
2022-08-03T06:32:30.088Z,44.17
2022-08-03T06:34:56.475Z,44.10
2022-08-03T06:37:24.515Z,44.00
2022-08-03T06:39:50.904Z,44.37
2022-08-03T06:42:17.539Z,44.20
2022-08-03T06:44:44.131Z,44.32
2022-08-03T06:47:10.528Z,44.08
2022-08-03T06:49:37.117Z,44.11
2022-08-03T06:52:06.949Z,44.08
2022-08-03T06:54:33.658Z,44.07
2022-08-03T06:57:00.103Z,44.23
2022-08-03T07:00:06.145Z,44.08
2022-08-03T07:02:13.020Z,44.26
2022-08-03T07:04:45.797Z,44.13
2022-08-03T07:07:12.227Z,44.12
2022-08-03T07:09:38.680Z,43.90
2022-08-03T07:12:08.295Z,44.14
2022-08-03T07:14:35.083Z,44.05
2022-08-03T07:17:01.500Z,44.21
2022-08-03T07:19:31.273Z,43.87
2022-08-03T07:22:02.173Z,44.12
2022-08-03T07:24:30.768Z,44.14
2022-08-03T07:26:57.220Z,44.25
2022-08-03T07:29:23.687Z,44.14
2022-08-03T07:31:50.216Z,44.35
2022-08-03T07:34:16.830Z,44.27
2022-08-03T07:36:43.453Z,44.17
2022-08-03T07:39:15.806Z,44.28
2022-08-03T07:41:45.302Z,44.35
2022-08-03T07:44:11.785Z,44.38
2022-08-03T07:46:38.324Z,44.34
2022-08-03T07:49:05.456Z,44.23
2022-08-03T07:51:31.985Z,44.99
2022-08-03T07:53:59.105Z,44.14
2022-08-03T07:56:25.778Z,44.13
2022-08-03T07:58:52.691Z,44.05
2022-08-03T08:01:19.607Z,43.86
2022-08-03T08:03:52.312Z,43.62
2022-08-03T08:06:19.653Z,43.60
2022-08-03T08:08:46.523Z,43.68
2022-08-03T08:11:13.116Z,43.68
2022-08-03T08:13:39.660Z,43.80
2022-08-03T08:16:06.403Z,43.50
2022-08-03T08:18:32.955Z,43.52
2022-08-03T08:21:01.490Z,43.61
2022-08-03T08:23:43.404Z,43.43
2022-08-03T08:26:11.106Z,43.69
2022-08-03T08:28:37.564Z,43.61
2022-08-03T08:31:04.091Z,43.62
2022-08-03T08:33:54.203Z,43.54
2022-08-03T08:36:17.387Z,43.47
2022-08-03T08:38:45.044Z,43.57
2022-08-03T08:41:12.114Z,43.58
2022-08-03T08:43:38.888Z,43.61
2022-08-03T08:46:08.232Z,43.63
2022-08-03T08:48:35.927Z,43.63
2022-08-03T08:51:02.706Z,43.49
2022-08-03T08:53:29.451Z,43.80
2022-08-03T08:56:00.875Z,43.51
2022-08-03T08:58:34.695Z,43.67
2022-08-03T09:01:01.252Z,43.85
2022-08-03T09:03:30.222Z,43.45
2022-08-03T09:05:58.293Z,43.65
2022-08-03T09:08:24.859Z,43.41
2022-08-03T09:10:51.299Z,43.40
2022-08-03T09:13:17.706Z,43.52
2022-08-03T09:15:51.281Z,43.54
2022-08-03T09:18:32.784Z,43.63
2022-08-03T09:21:33.666Z,43.78
2022-08-03T09:24:03.864Z,43.64
2022-08-03T09:26:32.232Z,43.64
2022-08-03T09:29:05.923Z,43.54
2022-08-03T09:31:43.128Z,43.57
2022-08-03T09:34:11.632Z,43.77
2022-08-03T09:36:45.892Z,43.65
2022-08-03T09:39:40.770Z,43.68
2022-08-03T09:42:09.487Z,43.75
2022-08-03T09:44:40.962Z,43.63
2022-08-03T09:47:07.684Z,43.64
2022-08-03T09:49:37.191Z,43.74
2022-08-03T09:52:33.020Z,43.54
2022-08-03T09:54:59.875Z,43.63
2022-08-03T09:57:26.853Z,43.52
2022-08-03T10:00:03.137Z,43.63
2022-08-03T10:02:32.951Z,43.51
2022-08-03T10:04:59.452Z,43.63
2022-08-03T10:07:25.853Z,43.31
2022-08-03T10:10:31.328Z,43.35
2022-08-03T10:12:57.380Z,43.47
2022-08-03T10:16:21.430Z,43.30
2022-08-03T10:18:10.387Z,43.58
2022-08-03T10:20:38.197Z,43.61
2022-08-03T10:23:05.208Z,43.49
2022-08-03T10:25:34.114Z,43.23
2022-08-03T10:28:02.142Z,43.47
2022-08-03T10:30:29.321Z,43.59
2022-08-03T10:33:00.036Z,43.49
2022-08-03T10:35:26.946Z,43.45
2022-08-03T10:37:59.083Z,43.60
2022-08-03T10:40:47.672Z,43.30
2022-08-03T10:43:18.657Z,43.36
2022-08-03T10:45:46.085Z,43.46
2022-08-03T10:48:13.636Z,43.49
2022-08-03T10:50:42.166Z,43.42
2022-08-03T10:53:08.782Z,43.28
2022-08-03T10:55:58.185Z,43.49
2022-08-03T10:58:53.341Z,43.56
2022-08-03T11:02:00.205Z,43.53
2022-08-03T11:04:29.513Z,43.58
2022-08-03T11:07:15.076Z,43.60
2022-08-03T11:09:42.847Z,43.54
2022-08-03T11:12:31.126Z,43.60
2022-08-03T11:15:02.709Z,43.45
2022-08-03T11:17:29.382Z,43.38
2022-08-03T11:19:56.462Z,43.50
2022-08-03T11:22:25.097Z,43.56
2022-08-03T11:24:53.794Z,43.27
2022-08-03T11:27:22.738Z,43.60
2022-08-03T11:30:04.421Z,43.48
2022-08-03T11:32:51.543Z,43.44
2022-08-03T11:35:25.493Z,43.33
2022-08-03T11:38:04.330Z,43.52
2022-08-03T11:40:53.567Z,43.44
2022-08-03T11:43:30.630Z,43.54
2022-08-03T11:46:00.793Z,43.61
2022-08-03T11:48:28.436Z,43.38
2022-08-03T11:50:54.890Z,43.52
2022-08-03T11:53:21.304Z,43.24
2022-08-03T11:55:53.141Z,43.52
2022-08-03T11:59:00.776Z,43.48
2022-08-03T12:01:08.230Z,43.38
2022-08-03T12:03:35.461Z,43.48
2022-08-03T12:06:03.098Z,43.60
2022-08-03T12:08:32.621Z,43.42
2022-08-03T12:11:00.316Z,43.64
2022-08-03T12:14:45.383Z,43.28
2022-08-03T12:16:23.891Z,43.57
2022-08-03T12:18:56.772Z,43.55
2022-08-03T12:21:24.771Z,43.24
2022-08-03T12:23:51.333Z,43.47
2022-08-03T12:26:17.759Z,43.22
2022-08-03T12:28:49.878Z,43.36
2022-08-03T12:31:16.997Z,43.38
2022-08-03T12:34:08.348Z,43.50
2022-08-03T12:36:35.415Z,43.34
2022-08-03T12:39:04.340Z,43.41
2022-08-03T12:41:31.569Z,43.59
2022-08-03T12:43:58.250Z,43.44
2022-08-03T12:46:29.819Z,43.55
2022-08-03T12:49:02.518Z,43.57
2022-08-03T12:51:33.318Z,43.36
2022-08-03T12:54:02.558Z,43.54
2022-08-03T12:56:29.055Z,43.29
2022-08-03T12:58:55.594Z,43.35
2022-08-03T13:01:24.242Z,43.34
2022-08-03T13:03:53.562Z,43.52
2022-08-03T13:06:22.117Z,43.45
2022-08-03T13:08:49.443Z,43.53
2022-08-03T13:11:53.503Z,43.34
2022-08-03T13:14:10.560Z,43.57
2022-08-03T13:16:43.155Z,43.46
2022-08-03T13:19:15.233Z,43.47
2022-08-03T13:21:53.887Z,43.37
2022-08-03T13:24:29.467Z,43.48
2022-08-03T13:26:57.085Z,43.53
2022-08-03T13:29:23.582Z,43.59
2022-08-03T13:31:50.867Z,43.38
2022-08-03T13:34:23.007Z,43.28
2022-08-03T13:37:08.400Z,43.47
2022-08-03T13:39:57.154Z,43.41
2022-08-03T13:42:22.618Z,43.42
2022-08-03T13:44:49.015Z,43.45
2022-08-03T13:47:15.417Z,43.48
2022-08-03T13:49:42.088Z,43.27
2022-08-03T13:52:21.113Z,43.53
2022-08-03T13:54:47.725Z,43.32
2022-08-03T13:58:04.605Z,43.53
2022-08-03T14:00:01.547Z,43.43
2022-08-03T14:02:28.066Z,43.34
2022-08-03T14:04:54.823Z,43.64
2022-08-03T14:07:21.539Z,43.41
2022-08-03T14:09:48.096Z,43.45
2022-08-03T14:12:14.469Z,43.43
2022-08-03T14:14:41.032Z,43.33
2022-08-03T14:17:07.527Z,43.62
2022-08-03T14:19:34.266Z,43.49
2022-08-03T14:22:19.346Z,43.66
2022-08-03T14:24:45.840Z,43.59
2022-08-03T14:27:12.239Z,43.64
2022-08-03T14:29:38.703Z,43.70
2022-08-03T14:32:11.693Z,43.55
2022-08-03T14:34:39.333Z,43.48
2022-08-03T14:37:05.928Z,43.41
2022-08-03T14:42:20.476Z,43.35
2022-08-03T14:44:47.371Z,43.34
2022-08-03T14:47:14.137Z,43.52
2022-08-03T14:50:37.475Z,43.47
2022-08-03T14:52:27.006Z,43.44
2022-08-03T14:54:53.719Z,43.51
2022-08-03T14:57:20.364Z,43.52
2022-08-03T14:59:56.453Z,43.55
2022-08-03T15:02:24.203Z,43.70
2022-08-03T15:04:50.881Z,43.46
2022-08-03T15:07:17.472Z,43.42
2022-08-03T15:09:43.972Z,43.53
2022-08-03T15:12:10.493Z,43.62
2022-08-03T15:14:38.650Z,43.62
2022-08-03T15:17:05.278Z,43.58
2022-08-03T15:20:02.079Z,43.51
2022-08-03T15:22:20.618Z,43.50
2022-08-03T15:24:51.609Z,43.49
2022-08-03T15:27:18.245Z,43.51
2022-08-03T15:30:07.688Z,43.54
2022-08-03T15:32:31.385Z,43.53
2022-08-03T15:34:57.796Z,43.42
2022-08-03T15:37:25.793Z,43.27
2022-08-03T15:39:58.381Z,43.46
2022-08-03T15:42:26.628Z,43.48
2022-08-03T15:44:54.014Z,43.60
2022-08-03T15:47:21.431Z,43.59
2022-08-03T15:49:48.054Z,43.34
2022-08-03T15:52:14.507Z,43.53
2022-08-03T15:54:40.922Z,43.58
2022-08-03T15:57:07.410Z,43.72
2022-08-03T15:59:34.053Z,43.67
2022-08-03T16:02:00.683Z,43.57
2022-08-03T16:04:27.182Z,43.56
2022-08-03T16:06:53.617Z,43.61
2022-08-03T16:09:23.611Z,43.66
2022-08-03T16:12:06.513Z,43.38
2022-08-03T16:14:51.795Z,43.38
2022-08-03T16:17:19.451Z,43.44
2022-08-03T16:19:46.083Z,43.48
2022-08-03T16:22:13.389Z,43.42
2022-08-03T16:24:40.989Z,43.42
2022-08-03T16:27:07.862Z,43.25
2022-08-03T16:29:44.049Z,43.36
2022-08-03T16:32:10.942Z,43.28
2022-08-03T16:34:37.917Z,43.44
2022-08-03T16:37:16.708Z,43.61
2022-08-03T16:39:51.061Z,43.22
2022-08-03T16:42:17.500Z,43.38
2022-08-03T16:44:43.915Z,43.52
2022-08-03T16:47:10.359Z,43.24
2022-08-03T16:49:54.907Z,43.59
2022-08-03T16:52:23.031Z,43.56
2022-08-03T16:54:53.243Z,43.50
2022-08-03T16:57:56.748Z,43.11
2022-08-03T17:00:10.694Z,43.44
2022-08-03T17:02:37.456Z,43.43
2022-08-03T17:05:04.280Z,43.32
2022-08-03T17:07:30.850Z,43.35
2022-08-03T17:09:57.364Z,43.58
2022-08-03T17:12:27.024Z,43.54
2022-08-03T17:14:54.066Z,43.43
2022-08-03T17:17:27.985Z,43.63
2022-08-03T17:19:55.458Z,43.46
2022-08-03T17:22:24.615Z,43.43
2022-08-03T17:24:52.049Z,43.47
2022-08-03T17:28:48.997Z,43.52
2022-08-03T17:30:08.584Z,43.45
2022-08-03T17:32:42.676Z,43.45
2022-08-03T17:35:18.813Z,43.63
2022-08-03T17:37:58.555Z,43.53
2022-08-03T17:40:30.900Z,43.64
2022-08-03T17:42:58.704Z,43.63
2022-08-03T17:45:25.313Z,43.75
2022-08-03T17:48:11.748Z,43.67
2022-08-03T17:51:05.363Z,43.70
2022-08-03T17:53:37.316Z,43.71
2022-08-03T17:56:40.749Z,43.51
2022-08-03T17:59:13.855Z,43.45
2022-08-03T18:02:16.632Z,43.85
2022-08-03T18:04:57.074Z,43.61
2022-08-03T18:07:25.531Z,43.89
2022-08-03T18:10:11.560Z,43.53
2022-08-03T18:12:52.409Z,43.67
2022-08-03T18:15:41.812Z,43.72
2022-08-03T18:18:11.306Z,43.75
2022-08-03T18:20:41.613Z,43.75
2022-08-03T18:23:10.302Z,43.64
2022-08-03T18:25:45.403Z,43.67
2022-08-03T18:28:16.202Z,43.92
2022-08-03T18:30:54.073Z,43.90
2022-08-03T18:34:16.217Z,43.80
2022-08-03T18:36:10.432Z,43.69
2022-08-03T18:38:40.459Z,43.67
2022-08-03T18:41:15.611Z,43.78
2022-08-03T18:43:58.216Z,43.77
2022-08-03T18:46:34.212Z,43.90
2022-08-03T18:49:11.307Z,43.75
2022-08-03T18:51:43.277Z,43.92
2022-08-03T18:54:59.109Z,43.72
2022-08-03T18:57:08.924Z,43.77
2022-08-03T18:59:49.568Z,43.69
2022-08-03T19:02:28.895Z,43.94
2022-08-03T19:04:58.415Z,44.02
2022-08-03T19:07:26.596Z,43.82
2022-08-03T19:09:54.580Z,43.63
2022-08-03T19:12:30.971Z,43.79
2022-08-03T19:15:12.647Z,43.80
2022-08-03T19:17:41.554Z,43.79
2022-08-03T19:20:09.511Z,43.88
2022-08-03T19:22:37.066Z,43.91
2022-08-03T19:25:04.557Z,44.07
2022-08-03T19:27:31.729Z,44.05
2022-08-03T19:30:02.058Z,44.01
2022-08-03T19:32:32.052Z,43.98
2022-08-03T19:34:59.816Z,43.84
2022-08-03T19:37:38.372Z,43.90
2022-08-03T19:40:10.268Z,43.83
2022-08-03T19:42:40.279Z,44.10
2022-08-03T19:45:11.312Z,43.98
2022-08-03T19:47:52.178Z,43.94
2022-08-03T19:50:19.991Z,44.08
2022-08-03T19:52:47.863Z,44.19
2022-08-03T19:55:15.409Z,43.94
2022-08-03T19:57:43.724Z,44.08
2022-08-03T20:02:59.682Z,44.12
2022-08-03T20:05:26.686Z,43.96
2022-08-03T20:07:54.192Z,44.11
2022-08-03T20:10:20.835Z,44.21
2022-08-03T20:12:48.624Z,44.26
2022-08-03T20:15:18.133Z,44.38
2022-08-03T20:17:56.448Z,44.36
2022-08-03T20:20:32.699Z,44.25
2022-08-03T20:23:06.909Z,44.09
2022-08-03T20:25:56.992Z,44.51
2022-08-03T20:28:32.751Z,44.32
2022-08-03T20:31:00.006Z,44.21
2022-08-03T20:33:46.537Z,44.23
2022-08-03T20:36:18.235Z,44.38
2022-08-03T20:38:47.130Z,44.42
2022-08-03T20:41:14.537Z,44.35
2022-08-03T20:43:41.342Z,44.61
2022-08-03T20:46:33.715Z,44.20
2022-08-03T20:48:56.751Z,44.42
2022-08-03T20:51:48.953Z,44.48
2022-08-03T20:54:28.908Z,44.28
2022-08-03T20:56:57.796Z,44.51
2022-08-03T20:59:28.841Z,44.50
2022-08-03T21:04:42.520Z,44.52
2022-08-03T21:07:23.061Z,44.45
2022-08-03T21:09:57.070Z,44.59
2022-08-03T21:12:28.858Z,44.53
2022-08-03T21:13:03.270Z,44.15
2022-08-03T21:14:58.505Z,44.63
2022-08-03T21:17:39.895Z,44.86
2022-08-03T21:20:08.473Z,45.08
2022-08-03T21:22:36.952Z,45.24
2022-08-03T21:25:09.310Z,45.42
2022-08-03T21:27:36.398Z,45.77
2022-08-03T21:30:05.347Z,45.40
2022-08-03T21:32:33.131Z,45.93
2022-08-03T21:35:00.513Z,45.93
2022-08-03T21:37:27.955Z,45.61
2022-08-03T21:39:54.957Z,45.50
2022-08-03T21:42:23.904Z,45.69
2022-08-03T21:44:53.166Z,45.60
2022-08-03T21:47:21.942Z,45.90
2022-08-03T21:50:05.554Z,46.14
2022-08-03T21:52:36.337Z,46.11
2022-08-03T21:55:06.428Z,45.94
2022-08-03T21:57:34.125Z,46.08
2022-08-03T22:00:17.401Z,46.16
2022-08-03T22:02:57.410Z,45.99
2022-08-03T22:05:42.877Z,46.18
2022-08-03T22:08:12.573Z,46.16
2022-08-03T22:10:39.271Z,46.38
2022-08-03T22:13:05.999Z,46.42
2022-08-03T22:15:32.879Z,46.23
2022-08-03T22:18:03.559Z,46.07
2022-08-03T22:20:30.594Z,46.51
2022-08-03T22:22:59.996Z,46.35
2022-08-03T22:25:36.837Z,46.31
2022-08-03T22:28:07.964Z,46.37
2022-08-03T22:30:35.090Z,46.28
2022-08-03T22:33:02.417Z,46.45
2022-08-03T22:35:31.227Z,46.35
2022-08-03T22:37:58.878Z,46.42
2022-08-03T22:40:26.326Z,46.35
2022-08-03T22:42:53.327Z,46.54
2022-08-03T22:46:07.428Z,46.35
2022-08-03T22:48:11.021Z,46.47
2022-08-03T22:50:37.802Z,46.46
2022-08-03T22:53:04.502Z,46.12
2022-08-03T22:55:31.094Z,46.46
2022-08-03T22:57:57.549Z,46.49
2022-08-03T23:00:24.765Z,46.53
2022-08-03T23:02:51.726Z,46.33
2022-08-03T23:06:01.611Z,46.29
2022-08-03T23:08:14.747Z,46.20
2022-08-03T23:10:46.686Z,46.66
2022-08-03T23:13:14.602Z,46.76
2022-08-03T23:15:41.486Z,46.45
2022-08-03T23:18:09.488Z,46.69
2022-08-03T23:20:37.759Z,46.39
2022-08-03T23:23:05.197Z,46.44
2022-08-03T23:25:31.727Z,46.56
2022-08-03T23:28:04.849Z,46.76
2022-08-03T23:30:33.655Z,46.36
2022-08-03T23:33:00.971Z,46.71
2022-08-03T23:36:28.698Z,46.60
2022-08-03T23:38:37.345Z,46.37
2022-08-03T23:41:04.746Z,46.61
2022-08-03T23:43:50.832Z,46.59
2022-08-03T23:46:19.769Z,46.49
2022-08-03T23:48:46.490Z,46.60
2022-08-03T23:51:31.756Z,46.57
2022-08-03T23:54:02.947Z,46.58
2022-08-03T23:56:38.042Z,46.60
2022-08-03T23:59:27.449Z,46.64
